Time;durP1;ratioP1;P1;durP2;ratioP2;P2;SDS_P1;SDS_P2;PMS_P1;PMS_P2;Temp;Humidity;BMP_temperature;BMP_pressure;BME280_temperature;BME280_humidity;BME280_pressure;Samples;Min_cycle;Max_cycle;Signal;HPM_P1;HPM_P2
2022/07/17 00:00:25;;;;;;;;;;;;;;;22.36;75.46;97319.69;595976;238;66965;-75
2022/07/17 00:02:53;;;;;;;;;;;;;;;22.36;75.37;97325.05;595964;238;67655;-75
2022/07/17 00:05:20;;;;;;;;;;;;;;;22.36;75.46;97322.37;595963;238;65159;-75
2022/07/17 00:07:49;;;;;;;;;;;;;;;22.37;75.42;97325.84;595981;238;67107;-75
2022/07/17 00:10:17;;;;;;;;;;;;;;;22.36;75.52;97325.05;595984;238;64614;-75
2022/07/17 00:12:45;;;;;;;;;;;;;;;22.36;75.45;97330.40;595991;238;62753;-75
2022/07/17 00:15:13;;;;;;;;;;;;;;;22.37;75.43;97342.73;596003;238;66974;-74
2022/07/17 00:17:40;;;;;;;;;;;;;;;22.37;75.47;97341.91;595993;238;64610;-75
2022/07/17 00:20:08;;;;;;;;;;;;;;;22.37;75.60;97347.27;595989;238;65149;-74
2022/07/17 00:22:36;;;;;;;;;;;;;;;22.37;75.53;97339.23;596019;238;66963;-74
2022/07/17 00:25:04;;;;;;;;;;;;;;;22.36;75.65;97346.47;595994;238;66838;-75
2022/07/17 00:27:32;;;;;;;;;;;;;;;22.37;75.63;97353.44;596061;238;65105;-75
2022/07/17 00:30:00;;;;;;;;;;;;;;;22.36;75.63;97356.37;596009;238;66790;-75
2022/07/17 00:32:28;;;;;;;;;;;;;;;22.36;75.54;97357.17;596021;238;64335;-74
2022/07/17 00:34:55;;;;;;;;;;;;;;;22.37;75.71;97360.66;596013;238;62942;-75
2022/07/17 00:37:23;;;;;;;;;;;;;;;22.37;75.74;97363.33;595971;238;66994;-66
2022/07/17 00:39:50;;;;;;;;;;;;;;;22.36;75.77;97356.37;596045;238;66948;-65
2022/07/17 00:42:18;;;;;;;;;;;;;;;22.37;75.75;97364.16;595981;238;65320;-66
2022/07/17 00:44:46;;;;;;;;;;;;;;;22.36;75.80;97354.50;595960;238;66918;-66
2022/07/17 00:47:18;;;;;;;;;;;;;;;22.36;75.76;97356.37;596004;238;66748;-66
2022/07/17 00:49:46;;;;;;;;;;;;;;;22.36;75.80;97348.34;596015;238;65183;-66
2022/07/17 00:52:14;;;;;;;;;;;;;;;22.36;75.81;97357.17;596024;238;66932;-66
2022/07/17 00:54:43;;;;;;;;;;;;;;;22.36;75.76;97356.37;596057;238;66771;-66
2022/07/17 00:57:12;;;;;;;;;;;;;;;22.36;75.73;97367.89;592172;238;65057;-66
2022/07/17 00:59:40;;;;;;;;;;;;;;;22.37;75.70;97366.00;592074;239;64230;-66
2022/07/17 01:02:09;;;;;;;;;;;;;;;22.36;75.89;97362.53;592066;239;66904;-66
2022/07/17 01:04:37;;;;;;;;;;;;;;;22.36;75.99;97354.50;592028;239;65052;-66
2022/07/17 01:07:05;;;;;;;;;;;;;;;22.35;76.03;97355.58;592118;239;67278;-66
2022/07/17 01:09:34;;;;;;;;;;;;;;;22.36;75.97;97362.53;592069;239;64859;-66
2022/07/17 01:12:01;;;;;;;;;;;;;;;22.36;76.03;97359.06;592035;239;63048;-66
2022/07/17 01:14:29;;;;;;;;;;;;;;;22.36;76.17;97373.24;592077;239;64888;-66
2022/07/17 01:16:56;;;;;;;;;;;;;;;22.36;76.16;97362.53;592055;239;64524;-66
2022/07/17 01:19:24;;;;;;;;;;;;;;;22.36;76.26;97365.20;592092;239;62949;-66
2022/07/17 01:21:51;;;;;;;;;;;;;;;22.35;76.24;97363.61;592101;239;64750;-66
2022/07/17 01:24:19;;;;;;;;;;;;;;;22.37;76.34;97368.69;592005;239;66815;-66
2022/07/17 01:26:49;;;;;;;;;;;;;;;22.36;76.27;97364.41;592050;239;62998;-66
2022/07/17 01:29:17;;;;;;;;;;;;;;;22.37;76.35;97368.69;592013;239;66964;-65
2022/07/17 01:31:45;;;;;;;;;;;;;;;22.36;76.42;97364.41;592098;239;66827;-66
2022/07/17 01:34:13;;;;;;;;;;;;;;;22.36;76.38;97375.12;592067;239;65030;-66
2022/07/17 01:36:41;;;;;;;;;;;;;;;22.35;76.29;97368.97;592035;239;64790;-66
2022/07/17 01:39:08;;;;;;;;;;;;;;;22.36;76.29;97367.89;592061;239;64635;-66
2022/07/17 01:41:36;;;;;;;;;;;;;;;22.36;76.42;97367.89;592056;239;63109;-66
2022/07/17 01:44:04;;;;;;;;;;;;;;;22.36;76.46;97367.89;592090;239;64744;-66
2022/07/17 01:46:31;;;;;;;;;;;;;;;22.36;76.40;97373.24;592161;239;66135;-66
2022/07/17 01:49:00;;;;;;;;;;;;;;;22.35;76.42;97371.65;592062;239;65041;-66
2022/07/17 01:51:28;;;;;;;;;;;;;;;22.36;76.35;97375.12;592041;239;64539;-66
2022/07/17 01:53:56;;;;;;;;;;;;;;;22.36;76.34;97375.12;592044;239;65387;-66
2022/07/17 01:56:23;;;;;;;;;;;;;;;22.35;76.33;97379.68;593820;238;63674;-66
2022/07/17 01:58:51;;;;;;;;;;;;;;;22.35;76.36;97377.00;594924;238;64359;-66
2022/07/17 02:01:18;;;;;;;;;;;;;;;22.35;76.46;97377.00;594855;238;64085;-66
2022/07/17 02:03:45;;;;;;;;;;;;;;;22.35;76.46;97371.65;594858;238;63019;-66
2022/07/17 02:06:13;;;;;;;;;;;;;;;22.35;76.66;97371.65;594847;238;64695;-66
2022/07/17 02:08:41;;;;;;;;;;;;;;;22.36;76.52;97375.92;594845;238;66722;-66
2022/07/17 02:11:08;;;;;;;;;;;;;;;22.35;76.66;97368.17;594919;238;63074;-66
2022/07/17 02:13:36;;;;;;;;;;;;;;;22.35;76.56;97366.30;594818;238;64361;-66
2022/07/17 02:16:03;;;;;;;;;;;;;;;22.35;76.67;97366.30;594872;238;64687;-75
2022/07/17 02:18:31;;;;;;;;;;;;;;;22.36;76.64;97372.45;594797;238;63080;-75
2022/07/17 02:20:59;;;;;;;;;;;;;;;22.35;76.70;97382.36;594823;238;67796;-75
2022/07/17 02:23:28;;;;;;;;;;;;;;;22.35;76.70;97374.33;594894;238;66753;-75
2022/07/17 02:25:55;;;;;;;;;;;;;;;22.36;76.63;97369.77;594823;238;62925;-75
2022/07/17 02:28:23;;;;;;;;;;;;;;;22.35;76.66;97376.20;594842;238;64760;-75
2022/07/17 02:30:50;;;;;;;;;;;;;;;22.35;76.62;97371.65;594834;238;66940;-75
2022/07/17 02:33:18;;;;;;;;;;;;;;;22.34;76.60;97375.41;594829;238;65006;-75
2022/07/17 02:35:45;;;;;;;;;;;;;;;22.35;76.49;97384.23;594844;238;66869;-75
2022/07/17 02:38:13;;;;;;;;;;;;;;;22.35;76.34;97381.56;594877;238;64582;-75
2022/07/17 02:40:41;;;;;;;;;;;;;;;22.35;76.49;97390.39;594834;238;64827;-75
2022/07/17 02:43:09;;;;;;;;;;;;;;;22.35;76.52;97386.92;594813;238;66817;-75
2022/07/17 02:45:36;;;;;;;;;;;;;;;22.35;76.59;97386.92;594809;238;66764;-75
2022/07/17 02:48:04;;;;;;;;;;;;;;;22.35;76.69;97386.92;594825;238;63013;-75
2022/07/17 02:50:32;;;;;;;;;;;;;;;22.35;76.73;97387.72;594874;238;67078;-75
2022/07/17 02:52:59;;;;;;;;;;;;;;;22.35;76.75;97379.68;594831;238;66826;-76
2022/07/17 02:55:27;;;;;;;;;;;;;;;22.35;76.68;97381.56;594783;238;65865;-75
2022/07/17 02:57:54;;;;;;;;;;;;;;;22.34;76.65;97375.41;594845;238;66960;-75
2022/07/17 03:00:22;;;;;;;;;;;;;;;22.35;76.63;97385.04;594834;238;66496;-75
2022/07/17 03:02:49;;;;;;;;;;;;;;;22.35;76.53;97392.27;594877;238;64929;-75
2022/07/17 03:05:17;;;;;;;;;;;;;;;22.35;76.44;97386.92;594821;238;66827;-75
2022/07/17 03:07:44;;;;;;;;;;;;;;;22.35;76.42;97395.75;594815;238;67098;-75
2022/07/17 03:10:12;;;;;;;;;;;;;;;22.34;76.37;97394.16;594813;238;63056;-75
2022/07/17 03:12:40;;;;;;;;;;;;;;;22.35;76.52;97394.95;594814;238;66915;-75
2022/07/17 03:15:08;;;;;;;;;;;;;;;22.34;76.70;97393.33;594878;238;66818;-75
2022/07/17 03:17:35;;;;;;;;;;;;;;;22.34;76.84;97396.83;594811;238;65134;-75
2022/07/17 03:20:03;;;;;;;;;;;;;;;22.34;76.64;97396.83;594840;238;66991;-75
2022/07/17 03:22:31;;;;;;;;;;;;;;;22.35;76.72;97398.42;594819;238;64539;-75
2022/07/17 03:24:58;;;;;;;;;;;;;;;22.34;76.68;97394.16;594858;238;63856;-66
2022/07/17 03:27:26;;;;;;;;;;;;;;;22.34;77.01;97399.51;594863;238;66589;-67
2022/07/17 03:29:54;;;;;;;;;;;;;;;22.34;76.95;97412.90;594813;238;66766;-66
2022/07/17 03:32:22;;;;;;;;;;;;;;;22.35;76.83;97409.14;594814;238;63023;-66
2022/07/17 03:34:49;;;;;;;;;;;;;;;22.35;76.79;97419.84;594817;238;67332;-66
2022/07/17 03:37:16;;;;;;;;;;;;;;;22.34;76.87;97423.61;594814;238;66798;-66
2022/07/17 03:39:44;;;;;;;;;;;;;;;22.34;76.94;97428.97;594818;238;62991;-66
2022/07/17 03:42:11;;;;;;;;;;;;;;;22.35;76.96;97429.77;594880;238;66766;-66
2022/07/17 03:44:39;;;;;;;;;;;;;;;22.34;76.99;97434.31;594817;238;64365;-66
2022/07/17 03:47:07;;;;;;;;;;;;;;;22.34;77.15;97434.31;594833;238;65059;-66
2022/07/17 03:49:34;;;;;;;;;;;;;;;22.35;77.05;97443.15;594842;238;66900;-66
2022/07/17 03:52:01;;;;;;;;;;;;;;;22.35;76.98;97443.15;594892;238;64447;-66
2022/07/17 03:54:29;;;;;;;;;;;;;;;22.35;76.95;97456.53;594856;238;63040;-66
2022/07/17 03:56:57;;;;;;;;;;;;;;;22.35;76.97;97456.53;595803;238;64764;-66
2022/07/17 03:59:24;;;;;;;;;;;;;;;22.34;77.00;97453.06;596031;238;66895;-66
2022/07/17 04:04:55;;;;;;;;;;;;;;;22.34;77.31;97447.70;596131;238;38769;-67
2022/07/17 04:07:30;;;;;;;;;;;;;;;22.34;77.23;97446.88;596029;238;64384;-67
2022/07/17 04:09:59;;;;;;;;;;;;;;;22.33;77.21;97448.76;596023;238;64909;-68
2022/07/17 04:12:27;;;;;;;;;;;;;;;22.32;77.14;97455.20;595987;238;66577;-68
2022/07/17 04:14:55;;;;;;;;;;;;;;;22.33;77.09;97451.44;596041;238;66362;-65
2022/07/17 04:17:23;;;;;;;;;;;;;;;22.33;77.08;97462.15;595958;238;65009;-65
2022/07/17 04:19:50;;;;;;;;;;;;;;;22.34;77.06;97454.91;596017;238;64161;-65
2022/07/17 04:22:18;;;;;;;;;;;;;;;22.35;77.08;97464.57;595957;238;66973;-65
2022/07/17 04:24:46;;;;;;;;;;;;;;;22.33;77.01;97467.50;596055;238;62897;-65
2022/07/17 04:27:14;;;;;;;;;;;;;;;22.34;76.97;97471.80;596004;238;64336;-74
2022/07/17 04:29:41;;;;;;;;;;;;;;;22.35;76.94;97467.25;595985;238;67713;-74
2022/07/17 04:32:09;;;;;;;;;;;;;;;22.34;76.97;97460.27;595985;238;62778;-74
2022/07/17 04:34:37;;;;;;;;;;;;;;;22.33;76.95;97464.83;596006;238;66912;-74
2022/07/17 04:37:04;;;;;;;;;;;;;;;22.34;76.91;97466.45;596041;238;65529;-74
2022/07/17 04:39:32;;;;;;;;;;;;;;;22.34;76.95;97466.45;596046;238;65063;-74
2022/07/17 04:42:00;;;;;;;;;;;;;;;22.34;76.95;97470.98;596003;238;64494;-74
2022/07/17 04:44:27;;;;;;;;;;;;;;;22.33;76.99;97470.18;595977;238;66847;-74
2022/07/17 04:46:56;;;;;;;;;;;;;;;22.35;76.88;97483.31;595994;238;65019;-74
2022/07/17 04:49:23;;;;;;;;;;;;;;;22.35;76.91;97488.67;596025;238;67416;-74
2022/07/17 04:51:51;;;;;;;;;;;;;;;22.34;76.90;97485.19;595994;238;67870;-74
2022/07/17 04:54:18;;;;;;;;;;;;;;;22.34;76.89;97477.16;595968;238;62742;-74
2022/07/17 04:56:46;;;;;;;;;;;;;;;22.35;76.96;97488.67;595038;238;66844;-74
2022/07/17 04:59:13;;;;;;;;;;;;;;;22.34;76.96;97487.88;594854;238;66835;-74
2022/07/17 05:01:41;;;;;;;;;;;;;;;22.34;76.88;97489.72;594875;238;62709;-74
2022/07/17 05:04:08;;;;;;;;;;;;;;;22.35;76.91;97488.67;594868;238;66884;-74
2022/07/17 05:06:36;;;;;;;;;;;;;;;22.34;76.95;97490.55;594837;238;66931;-74
2022/07/17 05:09:04;;;;;;;;;;;;;;;22.34;76.96;97485.19;594840;238;62678;-75
2022/07/17 05:11:31;;;;;;;;;;;;;;;22.34;76.99;97479.84;594771;238;66921;-74
2022/07/17 05:13:59;;;;;;;;;;;;;;;22.34;77.01;97493.23;594901;238;64167;-74
2022/07/17 05:16:27;;;;;;;;;;;;;;;22.34;77.07;97487.88;594817;238;65069;-74
2022/07/17 05:18:54;;;;;;;;;;;;;;;22.35;77.15;97488.67;594859;238;66771;-74
2022/07/17 05:21:22;;;;;;;;;;;;;;;22.35;77.17;97492.14;594849;238;66904;-74
2022/07/17 05:23:49;;;;;;;;;;;;;;;22.33;77.16;97499.63;594813;238;65114;-75
2022/07/17 05:26:17;;;;;;;;;;;;;;;22.34;77.14;97503.94;594824;238;66953;-74
2022/07/17 05:28:44;;;;;;;;;;;;;;;22.33;77.18;97491.60;594904;238;66330;-74
2022/07/17 05:31:11;;;;;;;;;;;;;;;22.33;77.22;97499.63;594786;238;65022;-77
2022/07/17 05:33:39;;;;;;;;;;;;;;;22.34;77.35;97497.75;594835;238;65276;-74
2022/07/17 05:36:07;;;;;;;;;;;;;;;22.34;77.41;97501.26;594884;238;67018;-75
2022/07/17 05:38:35;;;;;;;;;;;;;;;22.34;77.44;97498.58;594829;238;64945;-74
2022/07/17 05:41:02;;;;;;;;;;;;;;;22.34;77.49;97497.75;594867;238;65531;-75
2022/07/17 05:43:30;;;;;;;;;;;;;;;22.33;77.57;97494.28;594829;238;66581;-74
2022/07/17 05:45:58;;;;;;;;;;;;;;;22.33;77.50;97496.95;594842;238;63021;-74
2022/07/17 05:48:26;;;;;;;;;;;;;;;22.34;77.42;97500.44;594846;238;64780;-74
2022/07/17 05:50:53;;;;;;;;;;;;;;;22.33;77.35;97499.63;594878;238;64260;-65
2022/07/17 05:53:21;;;;;;;;;;;;;;;22.33;77.30;97504.19;594902;238;62919;-65
2022/07/17 05:55:48;;;;;;;;;;;;;;;22.34;77.35;97513.82;595260;238;64094;-65
2022/07/17 05:58:16;;;;;;;;;;;;;;;22.33;77.53;97510.34;596043;238;64355;-65
2022/07/17 06:00:45;;;;;;;;;;;;;;;22.34;77.63;97508.47;595996;238;65113;-65
2022/07/17 06:03:12;;;;;;;;;;;;;;;22.33;77.71;97513.02;596045;238;66671;-65
2022/07/17 06:05:41;;;;;;;;;;;;;;;22.34;77.74;97516.50;596011;238;66342;-65
2022/07/17 06:08:08;;;;;;;;;;;;;;;22.34;77.84;97519.17;596013;238;65079;-66
2022/07/17 06:10:38;;;;;;;;;;;;;;;22.33;77.77;97523.73;596005;238;66725;-66
2022/07/17 06:13:06;;;;;;;;;;;;;;;22.33;77.80;97517.58;596019;238;64173;-66
2022/07/17 06:15:33;;;;;;;;;;;;;;;22.33;77.62;97525.61;596063;238;65301;-66
2022/07/17 06:18:04;;;;;;;;;;;;;;;22.33;76.01;97523.73;595995;238;64781;-66
2022/07/17 06:20:32;;;;;;;;;;;;;;;22.34;75.94;97522.69;595993;238;66870;-66
2022/07/17 06:22:59;;;;;;;;;;;;;;;22.35;76.34;97523.48;595959;238;64827;-66
2022/07/17 06:25:26;;;;;;;;;;;;;;;22.34;77.36;97517.33;595991;238;66971;-65
2022/07/17 06:27:54;;;;;;;;;;;;;;;22.34;77.91;97520.00;595972;238;66907;-66
2022/07/17 06:30:21;;;;;;;;;;;;;;;22.35;78.08;97521.59;596059;238;65055;-66
2022/07/17 06:32:49;;;;;;;;;;;;;;;22.35;78.17;97516.24;595935;238;66787;-66
2022/07/17 06:35:16;;;;;;;;;;;;;;;22.36;78.10;97517.84;596016;238;66772;-65
2022/07/17 06:37:44;;;;;;;;;;;;;;;22.35;78.05;97512.77;595982;238;65041;-66
2022/07/17 06:40:11;;;;;;;;;;;;;;;22.35;78.05;97510.09;596010;238;66983;-66
2022/07/17 06:42:39;;;;;;;;;;;;;;;22.35;78.29;97510.89;596041;238;66366;-66
2022/07/17 06:45:07;;;;;;;;;;;;;;;22.36;78.52;97517.84;595971;238;62928;-74
2022/07/17 06:47:35;;;;;;;;;;;;;;;22.36;78.69;97517.84;595999;238;67017;-66
2022/07/17 06:50:02;;;;;;;;;;;;;;;22.36;78.78;97520.52;595972;238;67098;-66
2022/07/17 06:52:30;;;;;;;;;;;;;;;22.37;78.92;97511.43;595988;238;65369;-66
2022/07/17 06:54:58;;;;;;;;;;;;;;;22.37;78.94;97516.79;595913;238;66896;-66
2022/07/17 06:57:25;;;;;;;;;;;;;;;22.36;78.99;97507.13;594841;238;66776;-66
2022/07/17 06:59:53;;;;;;;;;;;;;;;22.37;79.04;97502.57;594773;238;65064;-75
2022/07/17 07:02:20;;;;;;;;;;;;;;;22.37;79.06;97511.43;594827;238;67056;-74
2022/07/17 07:04:48;;;;;;;;;;;;;;;22.38;79.23;97517.59;594856;238;65649;-75
2022/07/17 07:07:15;;;;;;;;;;;;;;;22.38;79.20;97514.91;594882;238;65025;-75
2022/07/17 07:09:43;;;;;;;;;;;;;;;22.38;79.19;97512.23;594838;238;66711;-75
2022/07/17 07:12:10;;;;;;;;;;;;;;;22.38;79.31;97512.23;594791;238;66778;-75
2022/07/17 07:14:38;;;;;;;;;;;;;;;22.38;79.29;97515.70;594790;238;65142;-75
2022/07/17 07:17:05;;;;;;;;;;;;;;;22.37;79.34;97514.11;594863;238;67370;-74
2022/07/17 07:19:33;;;;;;;;;;;;;;;22.37;79.16;97514.11;594891;238;67493;-66
2022/07/17 07:22:00;;;;;;;;;;;;;;;22.38;79.21;97513.03;594828;238;65236;-66
2022/07/17 07:24:28;;;;;;;;;;;;;;;22.38;79.27;97518.38;594811;238;66927;-66
2022/07/17 07:26:55;;;;;;;;;;;;;;;22.39;79.37;97513.83;594821;238;66986;-66
2022/07/17 07:29:23;;;;;;;;;;;;;;;22.39;79.39;97517.30;594808;238;62888;-66
2022/07/17 07:31:50;;;;;;;;;;;;;;;22.39;79.34;97509.27;594896;238;66959;-66
2022/07/17 07:34:18;;;;;;;;;;;;;;;22.39;79.48;97503.11;594867;238;64700;-66
2022/07/17 07:36:45;;;;;;;;;;;;;;;22.39;79.32;97508.47;594836;238;63097;-66
2022/07/17 07:39:12;;;;;;;;;;;;;;;22.39;79.36;97509.27;594805;238;64856;-66
2022/07/17 07:41:41;;;;;;;;;;;;;;;22.41;79.33;97510.89;594827;238;64573;-66
2022/07/17 07:44:08;;;;;;;;;;;;;;;22.40;79.24;97504.73;594801;238;64891;-65
2022/07/17 07:46:36;;;;;;;;;;;;;;;22.41;79.35;97516.25;594891;238;66908;-66
2022/07/17 07:49:04;;;;;;;;;;;;;;;22.39;79.43;97509.27;594844;238;66798;-66
2022/07/17 07:51:31;;;;;;;;;;;;;;;22.41;79.67;97505.53;594817;238;64862;-66
2022/07/17 07:53:58;;;;;;;;;;;;;;;22.40;79.66;97512.77;594808;238;67020;-66
2022/07/17 07:56:26;;;;;;;;;;;;;;;22.39;79.59;97513.83;594783;238;66495;-66
2022/07/17 07:58:54;;;;;;;;;;;;;;;22.39;79.55;97517.30;594899;238;65102;-66
2022/07/17 08:01:22;;;;;;;;;;;;;;;22.41;79.57;97518.92;594825;238;66977;-66
2022/07/17 08:03:50;;;;;;;;;;;;;;;22.42;79.64;97520.52;594793;238;66984;-66
2022/07/17 08:06:17;;;;;;;;;;;;;;;22.41;79.62;97524.28;594804;238;65056;-66
2022/07/17 08:08:45;;;;;;;;;;;;;;;22.41;79.48;97521.61;594809;238;66876;-66
2022/07/17 08:11:13;;;;;;;;;;;;;;;22.41;79.42;97518.92;594876;238;66827;-66
2022/07/17 08:13:41;;;;;;;;;;;;;;;22.42;79.48;97521.32;594813;238;62764;-66
2022/07/17 08:16:08;;;;;;;;;;;;;;;22.41;79.50;97518.92;594806;238;64719;-66
2022/07/17 08:18:36;;;;;;;;;;;;;;;22.42;79.48;97509.81;594833;238;64523;-66
2022/07/17 08:21:03;;;;;;;;;;;;;;;22.41;79.53;97514.37;594810;238;62928;-66
2022/07/17 08:23:31;;;;;;;;;;;;;;;22.42;79.52;97515.17;594862;238;64504;-66
2022/07/17 08:25:58;;;;;;;;;;;;;;;22.42;79.43;97515.97;594831;238;64619;-66
2022/07/17 08:28:26;;;;;;;;;;;;;;;22.42;79.43;97512.48;594783;238;63142;-66
2022/07/17 08:30:53;;;;;;;;;;;;;;;22.42;79.62;97513.28;594836;238;64899;-66
2022/07/17 08:33:21;;;;;;;;;;;;;;;22.41;79.69;97509.02;594807;238;64718;-66
2022/07/17 08:35:48;;;;;;;;;;;;;;;22.42;79.63;97515.97;594801;238;62933;-66
2022/07/17 08:38:16;;;;;;;;;;;;;;;22.42;79.59;97512.48;594918;238;64631;-66
2022/07/17 08:40:49;;;;;;;;;;;;;;;22.42;79.55;97515.17;594871;238;64758;-66
2022/07/17 08:43:15;;;;;;;;;;;;;;;22.42;79.48;97512.48;594837;238;63415;-66
2022/07/17 08:45:44;;;;;;;;;;;;;;;22.43;79.56;97511.44;594892;238;66928;-66
2022/07/17 08:48:13;;;;;;;;;;;;;;;22.42;79.49;97510.61;594795;238;66735;-66
2022/07/17 08:50:40;;;;;;;;;;;;;;;22.42;79.51;97509.81;594905;238;62905;-66
2022/07/17 08:53:09;;;;;;;;;;;;;;;22.42;79.48;97513.28;594818;238;64776;-66
2022/07/17 08:55:37;;;;;;;;;;;;;;;22.42;79.40;97507.93;594809;238;66879;-66
2022/07/17 08:58:05;;;;;;;;;;;;;;;22.44;79.37;97515.70;594852;238;65135;-66
2022/07/17 09:00:32;;;;;;;;;;;;;;;22.43;79.26;97512.23;594828;238;64621;-66
2022/07/17 09:03:01;;;;;;;;;;;;;;;22.43;79.34;97516.80;594894;238;64625;-66
2022/07/17 09:05:30;;;;;;;;;;;;;;;22.44;79.38;97511.16;594846;238;65404;-66
2022/07/17 09:07:58;;;;;;;;;;;;;;;22.42;79.25;97507.93;594830;238;66835;-66
2022/07/17 09:10:32;;;;;;;;;;;;;;;22.43;79.36;97503.41;594881;238;64270;-66
2022/07/17 09:13:00;;;;;;;;;;;;;;;22.43;79.51;97509.55;594816;238;62933;-66
2022/07/17 09:15:28;;;;;;;;;;;;;;;22.43;79.54;97514.91;594849;238;66792;-66
2022/07/17 09:17:57;;;;;;;;;;;;;;;22.43;79.51;97517.59;594892;238;66874;-65
2022/07/17 09:20:25;;;;;;;;;;;;;;;22.43;79.53;97516.80;594845;238;65038;-66
2022/07/17 09:23:05;;;;;;;;;;;;;;;22.44;79.54;97521.06;594852;238;66948;-66
2022/07/17 09:25:34;;;;;;;;;;;;;;;22.43;79.59;97509.55;594809;238;66853;-66
2022/07/17 09:28:03;;;;;;;;;;;;;;;22.43;79.60;97514.91;594844;238;63002;-66
2022/07/17 09:30:32;;;;;;;;;;;;;;;22.43;79.54;97506.08;594909;238;66938;-66
2022/07/17 09:33:00;;;;;;;;;;;;;;;22.43;79.47;97500.72;594852;238;66653;-66
2022/07/17 09:35:27;;;;;;;;;;;;;;;22.43;79.42;97503.41;594858;238;64958;-66
2022/07/17 09:37:55;;;;;;;;;;;;;;;22.45;79.58;97503.91;594854;238;66780;-66
2022/07/17 09:43:09;;;;;;;;;;;;;;;22.44;79.46;97518.39;594832;238;65220;-66
2022/07/17 09:45:36;;;;;;;;;;;;;;;22.43;79.33;97506.88;594900;238;67082;-66
2022/07/17 09:48:06;;;;;;;;;;;;;;;22.44;79.24;97500.44;594852;238;64672;-66
2022/07/17 09:50:34;;;;;;;;;;;;;;;22.44;79.45;97496.97;594822;238;65070;-66
2022/07/17 09:53:01;;;;;;;;;;;;;;;22.45;79.48;97506.59;594828;238;66980;-66
2022/07/17 09:55:35;;;;;;;;;;;;;;;22.44;79.59;97484.38;595105;238;66693;-67
2022/07/17 09:58:01;;;;;;;;;;;;;;;22.44;79.60;97488.93;595958;238;63865;-66
2022/07/17 10:00:29;;;;;;;;;;;;;;;22.44;79.60;97484.38;596106;238;67486;-66
2022/07/17 10:02:57;;;;;;;;;;;;;;;22.45;79.53;97495.88;595991;238;64490;-66
2022/07/17 10:05:26;;;;;;;;;;;;;;;22.44;79.49;97489.73;596011;238;62757;-66
2022/07/17 10:07:53;;;;;;;;;;;;;;;22.45;79.54;97493.20;595976;238;66780;-66
2022/07/17 10:10:21;;;;;;;;;;;;;;;22.46;79.63;97489.47;596008;238;66525;-66
2022/07/17 10:12:50;;;;;;;;;;;;;;;22.45;79.67;97485.17;596078;238;65058;-66
2022/07/17 10:15:19;;;;;;;;;;;;;;;22.45;79.79;97482.48;595987;238;66823;-66
2022/07/17 10:17:47;;;;;;;;;;;;;;;22.45;79.76;97488.64;595984;238;67109;-66
2022/07/17 10:20:16;;;;;;;;;;;;;;;22.44;79.67;97481.69;596020;238;64867;-66
2022/07/17 10:22:45;;;;;;;;;;;;;;;22.45;79.64;97498.56;595745;238;66667;-66
2022/07/17 10:25:16;;;;;;;;;;;;;;;22.45;79.57;97485.17;596022;238;64436;-66
2022/07/17 10:27:48;;;;;;;;;;;;;;;22.45;79.57;97482.48;595982;238;65072;-66
2022/07/17 10:30:17;;;;;;;;;;;;;;;22.45;79.68;97482.48;595946;238;64807;-66
2022/07/17 10:32:46;;;;;;;;;;;;;;;22.45;79.76;97482.48;595884;238;66803;-66
2022/07/17 10:35:13;;;;;;;;;;;;;;;22.45;79.71;97488.64;595769;238;64939;-66
2022/07/17 10:37:41;;;;;;;;;;;;;;;22.45;79.64;97485.17;595987;238;66848;-66
2022/07/17 10:40:13;;;;;;;;;;;;;;;22.45;79.53;97485.17;596040;238;64713;-66
2022/07/17 10:42:58;;;;;;;;;;;;;;;22.45;79.46;97477.13;595955;238;65225;-67
2022/07/17 10:45:42;;;;;;;;;;;;;;;22.45;79.57;97474.45;595965;238;66791;-66
2022/07/17 10:48:19;;;;;;;;;;;;;;;22.46;79.53;97473.41;595982;238;62333;-66
2022/07/17 10:50:50;;;;;;;;;;;;;;;22.46;79.54;97481.44;595756;238;65195;-66
2022/07/17 10:53:20;;;;;;;;;;;;;;;22.46;79.49;97484.12;595967;238;66883;-66
2022/07/17 10:55:49;;;;;;;;;;;;;;;22.45;79.49;97479.81;595993;238;64586;-66
2022/07/17 10:58:18;;;;;;;;;;;;;;;22.45;79.57;97467.22;595990;238;63019;-66
2022/07/17 11:01:03;;;;;;;;;;;;;;;22.45;79.65;97469.89;595995;238;67273;-66
2022/07/17 11:03:31;;;;;;;;;;;;;;;22.45;79.63;97463.74;595927;238;66566;-66
2022/07/17 11:06:15;;;;;;;;;;;;;;;22.45;79.63;97467.22;595995;238;65028;-66
2022/07/17 11:08:47;;;;;;;;;;;;;;;22.45;79.71;97453.83;595980;238;64750;-66
2022/07/17 11:11:15;;;;;;;;;;;;;;;22.46;79.71;97460.81;595981;238;64531;-66
2022/07/17 11:13:43;;;;;;;;;;;;;;;22.46;79.63;97471.52;596023;238;64907;-66
2022/07/17 11:16:11;;;;;;;;;;;;;;;22.45;79.55;97461.06;596000;238;66811;-66
2022/07/17 11:18:40;;;;;;;;;;;;;;;22.46;79.46;97460.02;595991;238;67007;-66
2022/07/17 11:21:07;;;;;;;;;;;;;;;22.46;79.36;97451.98;595742;238;64931;-67
2022/07/17 11:23:34;;;;;;;;;;;;;;;22.47;79.46;97457.05;595947;238;66877;-75
2022/07/17 11:26:03;;;;;;;;;;;;;;;22.47;79.47;97453.57;596010;238;66779;-75
2022/07/17 11:28:41;;;;;;;;;;;;;;;22.47;79.45;97450.89;595933;238;62998;-75
2022/07/17 11:31:22;;;;;;;;;;;;;;;22.47;79.38;97449.02;595922;238;64401;-75
2022/07/17 11:33:54;;;;;;;;;;;;;;;22.47;79.46;97442.86;595996;238;66798;-74
2022/07/17 11:36:32;;;;;;;;;;;;;;;22.47;79.59;97438.30;595910;238;65017;-74
2022/07/17 11:39:00;;;;;;;;;;;;;;;22.47;79.56;97442.86;595999;238;67199;-74
2022/07/17 11:41:32;;;;;;;;;;;;;;;22.47;79.46;97440.18;596020;238;66490;-74
2022/07/17 11:44:01;;;;;;;;;;;;;;;22.47;79.45;97432.94;595647;238;65085;-75
2022/07/17 11:46:29;;;;;;;;;;;;;;;22.47;79.38;97437.50;596010;238;64520;-75
2022/07/17 11:48:57;;;;;;;;;;;;;;;22.48;79.41;97428.38;595930;238;67083;-74
2022/07/17 11:51:42;;;;;;;;;;;;;;;22.47;79.42;97426.79;595934;238;65041;-75
2022/07/17 11:54:11;;;;;;;;;;;;;;;22.47;79.43;97426.79;595997;238;66946;-74
2022/07/17 11:56:40;;;;;;;;;;;;;;;22.47;79.43;97424.11;595019;238;66858;-74
2022/07/17 11:59:08;;;;;;;;;;;;;;;22.48;79.41;97417.67;594828;238;62990;-74
2022/07/17 12:01:40;;;;;;;;;;;;;;;22.47;79.37;97414.20;594846;238;64941;-74
2022/07/17 12:04:09;;;;;;;;;;;;;;;22.47;79.45;97419.55;594486;238;64405;-75
2022/07/17 12:06:37;;;;;;;;;;;;;;;22.48;79.27;97423.03;594662;238;65092;-74
2022/07/17 12:09:08;;;;;;;;;;;;;;;22.48;79.36;97409.64;594820;238;66574;-75
2022/07/17 12:11:49;;;;;;;;;;;;;;;22.49;79.46;97424.66;594868;238;66768;-74
2022/07/17 12:14:17;;;;;;;;;;;;;;;22.49;79.33;97419.30;594795;238;65111;-74
2022/07/17 12:16:44;;;;;;;;;;;;;;;22.48;79.28;97413.14;594844;238;67234;-75
2022/07/17 12:19:18;;;;;;;;;;;;;;;22.48;79.34;97406.95;594858;238;66783;-75
2022/07/17 12:21:56;;;;;;;;;;;;;;;22.49;79.31;97408.58;594872;238;62712;-74
2022/07/17 12:24:26;;;;;;;;;;;;;;;22.49;79.49;97408.58;594905;238;64867;-75
2022/07/17 12:26:54;;;;;;;;;;;;;;;22.48;79.41;97406.95;593992;238;66716;-74
2022/07/17 12:29:22;;;;;;;;;;;;;;;22.49;79.41;97413.94;594831;238;63827;-75
2022/07/17 12:31:51;;;;;;;;;;;;;;;22.49;79.33;97405.91;594884;238;66980;-74
2022/07/17 12:34:19;;;;;;;;;;;;;;;22.49;79.41;97403.23;594420;238;66874;-74
2022/07/17 12:36:46;;;;;;;;;;;;;;;22.48;79.41;97397.08;594907;238;65046;-74
2022/07/17 12:39:14;;;;;;;;;;;;;;;22.48;79.44;97397.08;594822;238;67028;-74
2022/07/17 12:41:42;;;;;;;;;;;;;;;22.49;79.38;97406.70;594827;238;66940;-74
2022/07/17 12:44:09;;;;;;;;;;;;;;;22.50;79.38;97399.47;594856;238;64979;-75
2022/07/17 12:46:37;;;;;;;;;;;;;;;22.49;79.29;97398.66;594868;238;66821;-75
2022/07/17 12:49:04;;;;;;;;;;;;;;;22.49;79.29;97397.88;594852;238;66753;-75
2022/07/17 12:51:32;;;;;;;;;;;;;;;22.49;79.14;97395.98;594910;238;65063;-75
2022/07/17 12:54:00;;;;;;;;;;;;;;;22.50;79.29;97394.11;594842;238;64822;-74
2022/07/17 12:56:27;;;;;;;;;;;;;;;22.50;79.31;97399.47;595615;238;64414;-74
2022/07/17 12:58:55;;;;;;;;;;;;;;;22.50;79.33;97388.75;596001;238;65045;-74